sensor_id;sensor_type;location;lat;lon;timestamp;P1;durP1;ratioP1;P2;durP2;ratioP2
49730;SDS011;35622;52.008;5.426;2023-09-18T00:00:46;21.88;;;14.65;;
49730;SDS011;35622;52.008;5.426;2023-09-18T00:03:14;24.75;;;14.75;;
49730;SDS011;35622;52.008;5.426;2023-09-18T00:05:42;20.42;;;14.15;;
49730;SDS011;35622;52.008;5.426;2023-09-18T00:08:08;20.90;;;14.45;;
49730;SDS011;35622;52.008;5.426;2023-09-18T00:10:34;22.23;;;14.25;;
49730;SDS011;35622;52.008;5.426;2023-09-18T00:13:00;26.10;;;15.77;;
49730;SDS011;35622;52.008;5.426;2023-09-18T00:15:26;21.70;;;14.32;;
49730;SDS011;35622;52.008;5.426;2023-09-18T00:17:51;24.00;;;15.88;;
49730;SDS011;35622;52.008;5.426;2023-09-18T00:20:17;21.58;;;14.90;;
49730;SDS011;35622;52.008;5.426;2023-09-18T00:22:43;23.48;;;16.67;;
49730;SDS011;35622;52.008;5.426;2023-09-18T00:25:09;25.23;;;15.32;;
49730;SDS011;35622;52.008;5.426;2023-09-18T00:27:35;21.63;;;15.10;;
49730;SDS011;35622;52.008;5.426;2023-09-18T00:30:03;21.98;;;15.40;;
49730;SDS011;35622;52.008;5.426;2023-09-18T00:32:29;24.63;;;15.45;;
49730;SDS011;35622;52.008;5.426;2023-09-18T00:34:56;26.23;;;15.65;;
49730;SDS011;35622;52.008;5.426;2023-09-18T00:37:21;27.30;;;16.30;;
49730;SDS011;35622;52.008;5.426;2023-09-18T00:39:47;24.58;;;15.30;;
49730;SDS011;35622;52.008;5.426;2023-09-18T00:42:14;23.27;;;16.40;;
49730;SDS011;35622;52.008;5.426;2023-09-18T00:44:41;30.88;;;17.35;;
49730;SDS011;35622;52.008;5.426;2023-09-18T00:47:07;30.13;;;17.25;;
49730;SDS011;35622;52.008;5.426;2023-09-18T00:49:33;28.60;;;18.45;;
49730;SDS011;35622;52.008;5.426;2023-09-18T00:52:01;27.90;;;18.35;;
49730;SDS011;35622;52.008;5.426;2023-09-18T00:54:27;28.15;;;17.38;;
49730;SDS011;35622;52.008;5.426;2023-09-18T00:56:54;27.90;;;17.42;;
49730;SDS011;35622;52.008;5.426;2023-09-18T00:59:20;28.05;;;18.50;;
49730;SDS011;35622;52.008;5.426;2023-09-18T01:01:46;32.13;;;19.77;;
49730;SDS011;35622;52.008;5.426;2023-09-18T01:04:16;28.95;;;19.23;;
49730;SDS011;35622;52.008;5.426;2023-09-18T01:06:42;31.35;;;19.73;;
49730;SDS011;35622;52.008;5.426;2023-09-18T01:09:07;32.30;;;18.80;;
49730;SDS011;35622;52.008;5.426;2023-09-18T01:11:41;29.20;;;17.27;;
49730;SDS011;35622;52.008;5.426;2023-09-18T01:14:35;32.75;;;19.58;;
49730;SDS011;35622;52.008;5.426;2023-09-18T01:17:08;27.35;;;17.23;;
49730;SDS011;35622;52.008;5.426;2023-09-18T01:22:03;27.95;;;17.98;;
49730;SDS011;35622;52.008;5.426;2023-09-18T01:24:30;31.80;;;18.88;;
49730;SDS011;35622;52.008;5.426;2023-09-18T01:26:57;31.58;;;18.95;;
49730;SDS011;35622;52.008;5.426;2023-09-18T01:29:23;29.42;;;18.50;;
49730;SDS011;35622;52.008;5.426;2023-09-18T01:31:48;31.25;;;20.33;;
49730;SDS011;35622;52.008;5.426;2023-09-18T01:34:15;29.95;;;18.95;;
49730;SDS011;35622;52.008;5.426;2023-09-18T01:36:42;35.33;;;20.02;;
49730;SDS011;35622;52.008;5.426;2023-09-18T01:39:09;29.65;;;19.73;;
49730;SDS011;35622;52.008;5.426;2023-09-18T01:41:36;29.15;;;20.02;;
49730;SDS011;35622;52.008;5.426;2023-09-18T01:44:03;35.47;;;21.33;;
49730;SDS011;35622;52.008;5.426;2023-09-18T01:46:29;30.13;;;19.20;;
49730;SDS011;35622;52.008;5.426;2023-09-18T01:49:01;33.50;;;20.52;;
49730;SDS011;35622;52.008;5.426;2023-09-18T01:51:30;28.33;;;18.92;;
49730;SDS011;35622;52.008;5.426;2023-09-18T01:53:55;27.70;;;19.42;;
49730;SDS011;35622;52.008;5.426;2023-09-18T01:56:21;32.78;;;20.13;;
49730;SDS011;35622;52.008;5.426;2023-09-18T01:58:48;29.70;;;19.63;;
49730;SDS011;35622;52.008;5.426;2023-09-18T02:01:14;30.02;;;19.65;;
49730;SDS011;35622;52.008;5.426;2023-09-18T02:03:39;30.52;;;18.92;;
49730;SDS011;35622;52.008;5.426;2023-09-18T02:06:06;31.83;;;18.67;;
49730;SDS011;35622;52.008;5.426;2023-09-18T02:08:31;26.65;;;17.60;;
49730;SDS011;35622;52.008;5.426;2023-09-18T02:10:57;28.23;;;17.70;;
49730;SDS011;35622;52.008;5.426;2023-09-18T02:13:22;34.75;;;19.48;;
49730;SDS011;35622;52.008;5.426;2023-09-18T02:15:48;31.58;;;21.10;;
49730;SDS011;35622;52.008;5.426;2023-09-18T02:18:14;26.92;;;17.73;;
49730;SDS011;35622;52.008;5.426;2023-09-18T02:20:40;28.17;;;18.02;;
49730;SDS011;35622;52.008;5.426;2023-09-18T02:23:06;26.58;;;18.38;;
49730;SDS011;35622;52.008;5.426;2023-09-18T02:25:32;31.92;;;21.60;;
49730;SDS011;35622;52.008;5.426;2023-09-18T02:27:57;33.97;;;21.42;;
49730;SDS011;35622;52.008;5.426;2023-09-18T02:30:23;31.95;;;21.33;;
49730;SDS011;35622;52.008;5.426;2023-09-18T02:32:48;33.60;;;21.13;;
49730;SDS011;35622;52.008;5.426;2023-09-18T02:35:14;38.92;;;24.70;;
49730;SDS011;35622;52.008;5.426;2023-09-18T02:37:39;40.20;;;24.63;;
49730;SDS011;35622;52.008;5.426;2023-09-18T02:40:05;30.67;;;20.52;;
49730;SDS011;35622;52.008;5.426;2023-09-18T02:42:32;36.15;;;22.17;;
49730;SDS011;35622;52.008;5.426;2023-09-18T02:44:58;42.38;;;24.63;;
49730;SDS011;35622;52.008;5.426;2023-09-18T02:47:24;37.85;;;23.95;;
49730;SDS011;35622;52.008;5.426;2023-09-18T02:49:49;35.03;;;22.40;;
49730;SDS011;35622;52.008;5.426;2023-09-18T02:52:15;35.15;;;22.00;;
49730;SDS011;35622;52.008;5.426;2023-09-18T02:54:40;34.97;;;22.90;;
49730;SDS011;35622;52.008;5.426;2023-09-18T02:57:06;36.90;;;24.38;;
49730;SDS011;35622;52.008;5.426;2023-09-18T02:59:31;40.88;;;22.13;;
49730;SDS011;35622;52.008;5.426;2023-09-18T03:01:57;40.92;;;23.35;;
49730;SDS011;35622;52.008;5.426;2023-09-18T03:04:22;38.63;;;22.42;;
49730;SDS011;35622;52.008;5.426;2023-09-18T03:06:48;118.00;;;21.25;;
49730;SDS011;35622;52.008;5.426;2023-09-18T03:09:14;38.40;;;20.65;;
49730;SDS011;35622;52.008;5.426;2023-09-18T03:11:40;36.30;;;19.23;;
49730;SDS011;35622;52.008;5.426;2023-09-18T03:14:06;39.50;;;20.30;;
49730;SDS011;35622;52.008;5.426;2023-09-18T03:16:31;29.98;;;20.05;;
49730;SDS011;35622;52.008;5.426;2023-09-18T03:18:58;26.30;;;19.40;;
49730;SDS011;35622;52.008;5.426;2023-09-18T03:21:23;32.45;;;21.35;;
49730;SDS011;35622;52.008;5.426;2023-09-18T03:23:49;39.60;;;20.05;;
49730;SDS011;35622;52.008;5.426;2023-09-18T03:26:15;41.65;;;20.13;;
49730;SDS011;35622;52.008;5.426;2023-09-18T03:28:40;41.63;;;21.55;;
49730;SDS011;35622;52.008;5.426;2023-09-18T03:31:06;39.95;;;18.33;;
49730;SDS011;35622;52.008;5.426;2023-09-18T03:33:31;30.45;;;19.98;;
49730;SDS011;35622;52.008;5.426;2023-09-18T03:35:57;35.17;;;20.02;;
49730;SDS011;35622;52.008;5.426;2023-09-18T03:38:23;27.15;;;18.10;;
49730;SDS011;35622;52.008;5.426;2023-09-18T03:40:49;29.02;;;19.42;;
49730;SDS011;35622;52.008;5.426;2023-09-18T03:43:15;26.55;;;18.85;;
49730;SDS011;35622;52.008;5.426;2023-09-18T03:45:41;27.95;;;19.25;;
49730;SDS011;35622;52.008;5.426;2023-09-18T03:48:06;27.10;;;20.40;;
49730;SDS011;35622;52.008;5.426;2023-09-18T03:50:32;26.33;;;20.15;;
49730;SDS011;35622;52.008;5.426;2023-09-18T03:52:58;27.90;;;19.20;;
49730;SDS011;35622;52.008;5.426;2023-09-18T03:55:23;26.63;;;18.75;;
49730;SDS011;35622;52.008;5.426;2023-09-18T03:57:49;25.20;;;19.50;;
49730;SDS011;35622;52.008;5.426;2023-09-18T04:00:14;25.08;;;18.85;;
49730;SDS011;35622;52.008;5.426;2023-09-18T04:02:41;30.38;;;21.13;;
49730;SDS011;35622;52.008;5.426;2023-09-18T04:05:06;37.13;;;19.83;;
49730;SDS011;35622;52.008;5.426;2023-09-18T04:07:32;42.38;;;19.95;;
49730;SDS011;35622;52.008;5.426;2023-09-18T04:09:58;29.02;;;20.63;;
49730;SDS011;35622;52.008;5.426;2023-09-18T04:12:23;26.13;;;19.17;;
49730;SDS011;35622;52.008;5.426;2023-09-18T04:14:49;35.60;;;18.77;;
49730;SDS011;35622;52.008;5.426;2023-09-18T04:17:16;51.10;;;17.55;;
49730;SDS011;35622;52.008;5.426;2023-09-18T04:19:41;35.13;;;18.75;;
49730;SDS011;35622;52.008;5.426;2023-09-18T04:22:08;131.93;;;20.13;;
49730;SDS011;35622;52.008;5.426;2023-09-18T04:24:34;41.20;;;19.13;;
49730;SDS011;35622;52.008;5.426;2023-09-18T04:26:59;29.80;;;19.52;;
49730;SDS011;35622;52.008;5.426;2023-09-18T04:29:25;31.20;;;22.92;;
49730;SDS011;35622;52.008;5.426;2023-09-18T04:31:50;40.47;;;23.98;;
49730;SDS011;35622;52.008;5.426;2023-09-18T04:34:16;35.58;;;21.85;;
49730;SDS011;35622;52.008;5.426;2023-09-18T04:36:41;31.05;;;21.70;;
49730;SDS011;35622;52.008;5.426;2023-09-18T04:39:08;36.58;;;21.77;;
49730;SDS011;35622;52.008;5.426;2023-09-18T04:41:34;38.72;;;22.58;;
49730;SDS011;35622;52.008;5.426;2023-09-18T04:44:00;36.65;;;22.52;;
49730;SDS011;35622;52.008;5.426;2023-09-18T04:46:25;41.28;;;22.95;;
49730;SDS011;35622;52.008;5.426;2023-09-18T04:48:51;48.05;;;23.83;;
49730;SDS011;35622;52.008;5.426;2023-09-18T04:51:17;45.88;;;24.98;;
49730;SDS011;35622;52.008;5.426;2023-09-18T04:53:42;44.15;;;21.67;;
49730;SDS011;35622;52.008;5.426;2023-09-18T04:56:08;35.33;;;21.48;;
49730;SDS011;35622;52.008;5.426;2023-09-18T04:58:35;32.08;;;18.38;;
49730;SDS011;35622;52.008;5.426;2023-09-18T05:01:02;32.35;;;19.77;;
49730;SDS011;35622;52.008;5.426;2023-09-18T05:03:30;31.08;;;19.58;;
49730;SDS011;35622;52.008;5.426;2023-09-18T05:05:57;32.63;;;20.40;;
49730;SDS011;35622;52.008;5.426;2023-09-18T05:08:23;32.85;;;19.98;;
49730;SDS011;35622;52.008;5.426;2023-09-18T05:10:49;46.00;;;19.90;;
49730;SDS011;35622;52.008;5.426;2023-09-18T05:13:14;47.10;;;19.55;;
49730;SDS011;35622;52.008;5.426;2023-09-18T05:15:40;108.55;;;20.13;;
49730;SDS011;35622;52.008;5.426;2023-09-18T05:18:05;72.75;;;19.63;;
49730;SDS011;35622;52.008;5.426;2023-09-18T05:20:31;24.23;;;15.73;;
49730;SDS011;35622;52.008;5.426;2023-09-18T05:22:59;29.83;;;17.38;;
49730;SDS011;35622;52.008;5.426;2023-09-18T05:25:26;27.73;;;17.75;;
49730;SDS011;35622;52.008;5.426;2023-09-18T05:27:59;23.73;;;16.30;;
49730;SDS011;35622;52.008;5.426;2023-09-18T05:30:26;78.50;;;18.17;;
49730;SDS011;35622;52.008;5.426;2023-09-18T05:32:54;23.42;;;15.65;;
49730;SDS011;35622;52.008;5.426;2023-09-18T05:38:42;27.77;;;16.20;;
49730;SDS011;35622;52.008;5.426;2023-09-18T05:41:10;80.65;;;17.48;;
49730;SDS011;35622;52.008;5.426;2023-09-18T05:43:36;57.20;;;15.52;;
49730;SDS011;35622;52.008;5.426;2023-09-18T05:46:01;39.42;;;16.63;;
49730;SDS011;35622;52.008;5.426;2023-09-18T05:48:27;27.58;;;15.85;;
49730;SDS011;35622;52.008;5.426;2023-09-18T05:50:53;23.70;;;14.90;;
49730;SDS011;35622;52.008;5.426;2023-09-18T05:53:19;21.38;;;14.98;;
49730;SDS011;35622;52.008;5.426;2023-09-18T05:55:45;30.08;;;15.77;;
49730;SDS011;35622;52.008;5.426;2023-09-18T05:58:11;32.42;;;14.77;;
49730;SDS011;35622;52.008;5.426;2023-09-18T06:00:36;133.98;;;16.25;;
49730;SDS011;35622;52.008;5.426;2023-09-18T06:03:02;36.22;;;14.45;;
49730;SDS011;35622;52.008;5.426;2023-09-18T06:05:28;31.17;;;14.60;;
49730;SDS011;35622;52.008;5.426;2023-09-18T06:07:56;46.05;;;14.93;;
49730;SDS011;35622;52.008;5.426;2023-09-18T06:10:21;40.50;;;15.10;;
49730;SDS011;35622;52.008;5.426;2023-09-18T06:12:47;22.77;;;13.18;;
49730;SDS011;35622;52.008;5.426;2023-09-18T06:15:13;18.38;;;13.00;;
49730;SDS011;35622;52.008;5.426;2023-09-18T06:17:40;23.50;;;13.73;;
49730;SDS011;35622;52.008;5.426;2023-09-18T06:20:07;22.50;;;13.88;;
49730;SDS011;35622;52.008;5.426;2023-09-18T06:22:40;25.75;;;13.95;;
49730;SDS011;35622;52.008;5.426;2023-09-18T06:25:06;16.67;;;12.15;;
49730;SDS011;35622;52.008;5.426;2023-09-18T06:27:34;21.67;;;13.18;;
49730;SDS011;35622;52.008;5.426;2023-09-18T06:30:01;20.80;;;12.45;;
49730;SDS011;35622;52.008;5.426;2023-09-18T06:32:28;16.80;;;12.65;;
49730;SDS011;35622;52.008;5.426;2023-09-18T06:34:54;20.15;;;12.75;;
49730;SDS011;35622;52.008;5.426;2023-09-18T06:37:19;43.10;;;12.43;;
49730;SDS011;35622;52.008;5.426;2023-09-18T06:39:45;25.10;;;13.90;;
49730;SDS011;35622;52.008;5.426;2023-09-18T06:42:10;22.10;;;14.02;;
49730;SDS011;35622;52.008;5.426;2023-09-18T06:44:37;21.98;;;13.18;;
49730;SDS011;35622;52.008;5.426;2023-09-18T06:47:03;21.45;;;14.60;;
49730;SDS011;35622;52.008;5.426;2023-09-18T06:49:28;19.58;;;13.65;;
49730;SDS011;35622;52.008;5.426;2023-09-18T06:51:55;20.02;;;15.05;;
49730;SDS011;35622;52.008;5.426;2023-09-18T06:54:21;24.17;;;15.48;;
49730;SDS011;35622;52.008;5.426;2023-09-18T06:56:46;19.65;;;14.13;;
49730;SDS011;35622;52.008;5.426;2023-09-18T06:59:12;21.73;;;14.18;;
49730;SDS011;35622;52.008;5.426;2023-09-18T07:01:38;50.80;;;14.52;;
49730;SDS011;35622;52.008;5.426;2023-09-18T07:04:05;21.15;;;15.60;;
49730;SDS011;35622;52.008;5.426;2023-09-18T07:06:30;22.58;;;14.13;;
49730;SDS011;35622;52.008;5.426;2023-09-18T07:08:56;21.75;;;14.30;;
49730;SDS011;35622;52.008;5.426;2023-09-18T07:11:22;21.15;;;15.00;;
49730;SDS011;35622;52.008;5.426;2023-09-18T07:13:47;20.08;;;13.55;;
49730;SDS011;35622;52.008;5.426;2023-09-18T07:16:13;22.67;;;13.02;;
49730;SDS011;35622;52.008;5.426;2023-09-18T07:18:38;22.70;;;13.02;;
49730;SDS011;35622;52.008;5.426;2023-09-18T07:21:04;18.17;;;13.00;;
49730;SDS011;35622;52.008;5.426;2023-09-18T07:23:30;21.50;;;13.82;;
49730;SDS011;35622;52.008;5.426;2023-09-18T07:25:55;20.17;;;12.80;;
49730;SDS011;35622;52.008;5.426;2023-09-18T07:28:23;16.27;;;12.57;;
49730;SDS011;35622;52.008;5.426;2023-09-18T07:30:49;16.50;;;12.63;;
49730;SDS011;35622;52.008;5.426;2023-09-18T07:33:14;19.08;;;12.02;;
49730;SDS011;35622;52.008;5.426;2023-09-18T07:35:42;17.75;;;11.55;;
49730;SDS011;35622;52.008;5.426;2023-09-18T07:38:13;16.58;;;11.43;;
49730;SDS011;35622;52.008;5.426;2023-09-18T07:40:39;18.98;;;11.95;;
49730;SDS011;35622;52.008;5.426;2023-09-18T07:43:05;16.92;;;11.52;;
49730;SDS011;35622;52.008;5.426;2023-09-18T07:45:30;13.40;;;10.13;;
49730;SDS011;35622;52.008;5.426;2023-09-18T07:47:56;11.95;;;9.63;;
49730;SDS011;35622;52.008;5.426;2023-09-18T07:50:22;14.65;;;9.30;;
49730;SDS011;35622;52.008;5.426;2023-09-18T07:52:47;12.38;;;8.75;;
49730;SDS011;35622;52.008;5.426;2023-09-18T07:55:13;8.98;;;7.65;;
49730;SDS011;35622;52.008;5.426;2023-09-18T07:57:39;12.13;;;8.60;;
49730;SDS011;35622;52.008;5.426;2023-09-18T08:00:05;9.82;;;7.60;;
49730;SDS011;35622;52.008;5.426;2023-09-18T08:02:36;11.20;;;7.35;;
49730;SDS011;35622;52.008;5.426;2023-09-18T08:05:03;9.95;;;7.32;;
49730;SDS011;35622;52.008;5.426;2023-09-18T08:07:30;9.20;;;7.57;;
49730;SDS011;35622;52.008;5.426;2023-09-18T08:09:55;11.80;;;7.13;;
49730;SDS011;35622;52.008;5.426;2023-09-18T08:12:22;8.80;;;6.95;;
49730;SDS011;35622;52.008;5.426;2023-09-18T08:14:48;10.45;;;6.82;;
49730;SDS011;35622;52.008;5.426;2023-09-18T08:17:15;10.20;;;6.68;;
49730;SDS011;35622;52.008;5.426;2023-09-18T08:19:40;10.10;;;6.90;;
49730;SDS011;35622;52.008;5.426;2023-09-18T08:22:07;8.38;;;6.50;;
49730;SDS011;35622;52.008;5.426;2023-09-18T08:24:33;7.70;;;5.88;;
49730;SDS011;35622;52.008;5.426;2023-09-18T08:26:58;8.10;;;6.60;;
49730;SDS011;35622;52.008;5.426;2023-09-18T08:29:24;7.72;;;6.05;;
49730;SDS011;35622;52.008;5.426;2023-09-18T08:31:49;8.40;;;5.55;;
49730;SDS011;35622;52.008;5.426;2023-09-18T08:34:15;5.15;;;4.40;;
49730;SDS011;35622;52.008;5.426;2023-09-18T08:36:41;5.90;;;4.40;;
49730;SDS011;35622;52.008;5.426;2023-09-18T08:39:07;5.72;;;4.60;;
49730;SDS011;35622;52.008;5.426;2023-09-18T08:41:33;5.45;;;4.10;;
49730;SDS011;35622;52.008;5.426;2023-09-18T08:44:03;7.72;;;4.40;;
49730;SDS011;35622;52.008;5.426;2023-09-18T08:46:32;6.40;;;4.35;;
49730;SDS011;35622;52.008;5.426;2023-09-18T08:48:59;4.63;;;3.55;;
49730;SDS011;35622;52.008;5.426;2023-09-18T08:51:25;4.20;;;3.35;;
49730;SDS011;35622;52.008;5.426;2023-09-18T08:53:51;5.72;;;3.70;;
49730;SDS011;35622;52.008;5.426;2023-09-18T08:56:19;4.25;;;3.55;;
49730;SDS011;35622;52.008;5.426;2023-09-18T08:58:46;6.05;;;3.53;;
49730;SDS011;35622;52.008;5.426;2023-09-18T09:01:12;4.72;;;3.28;;
49730;SDS011;35622;52.008;5.426;2023-09-18T09:03:38;6.05;;;2.97;;
49730;SDS011;35622;52.008;5.426;2023-09-18T09:06:05;5.72;;;3.13;;
49730;SDS011;35622;52.008;5.426;2023-09-18T09:08:31;3.47;;;2.33;;
49730;SDS011;35622;52.008;5.426;2023-09-18T09:10:57;4.90;;;2.72;;
49730;SDS011;35622;52.008;5.426;2023-09-18T09:13:23;4.32;;;2.45;;
49730;SDS011;35622;52.008;5.426;2023-09-18T09:15:51;3.35;;;2.30;;
49730;SDS011;35622;52.008;5.426;2023-09-18T09:18:19;3.65;;;1.98;;
49730;SDS011;35622;52.008;5.426;2023-09-18T09:21:00;4.32;;;2.20;;
49730;SDS011;35622;52.008;5.426;2023-09-18T09:23:29;4.78;;;2.30;;
49730;SDS011;35622;52.008;5.426;2023-09-18T09:26:11;3.20;;;2.30;;
49730;SDS011;35622;52.008;5.426;2023-09-18T09:28:38;4.82;;;2.10;;
49730;SDS011;35622;52.008;5.426;2023-09-18T09:31:04;3.83;;;1.95;;
49730;SDS011;35622;52.008;5.426;2023-09-18T09:33:30;2.80;;;1.90;;
49730;SDS011;35622;52.008;5.426;2023-09-18T09:35:56;2.85;;;1.85;;
49730;SDS011;35622;52.008;5.426;2023-09-18T09:38:27;2.15;;;1.80;;
49730;SDS011;35622;52.008;5.426;2023-09-18T09:40:56;3.33;;;1.90;;
49730;SDS011;35622;52.008;5.426;2023-09-18T09:43:24;4.57;;;1.90;;
49730;SDS011;35622;52.008;5.426;2023-09-18T09:45:56;6.63;;;2.00;;
49730;SDS011;35622;52.008;5.426;2023-09-18T09:48:28;3.58;;;1.80;;
49730;SDS011;35622;52.008;5.426;2023-09-18T09:50:59;3.47;;;1.88;;
49730;SDS011;35622;52.008;5.426;2023-09-18T09:53:41;5.55;;;2.13;;
49730;SDS011;35622;52.008;5.426;2023-09-18T09:56:09;2.92;;;2.10;;
49730;SDS011;35622;52.008;5.426;2023-09-18T09:58:34;3.35;;;2.00;;
49730;SDS011;35622;52.008;5.426;2023-09-18T10:01:02;5.35;;;2.00;;
49730;SDS011;35622;52.008;5.426;2023-09-18T10:03:33;3.45;;;1.83;;
49730;SDS011;35622;52.008;5.426;2023-09-18T10:06:00;2.35;;;1.75;;
49730;SDS011;35622;52.008;5.426;2023-09-18T10:08:28;3.67;;;1.85;;
49730;SDS011;35622;52.008;5.426;2023-09-18T10:10:56;4.82;;;2.05;;
49730;SDS011;35622;52.008;5.426;2023-09-18T10:13:32;5.45;;;2.25;;
49730;SDS011;35622;52.008;5.426;2023-09-18T10:16:04;4.32;;;2.25;;
49730;SDS011;35622;52.008;5.426;2023-09-18T10:21:08;4.18;;;3.72;;
49730;SDS011;35622;52.008;5.426;2023-09-18T10:26:24;5.93;;;5.00;;
49730;SDS011;35622;52.008;5.426;2023-09-18T10:28:53;6.65;;;5.20;;
49730;SDS011;35622;52.008;5.426;2023-09-18T10:31:23;6.32;;;5.30;;
49730;SDS011;35622;52.008;5.426;2023-09-18T10:33:51;5.68;;;4.95;;
49730;SDS011;35622;52.008;5.426;2023-09-18T10:36:18;6.90;;;6.10;;
49730;SDS011;35622;52.008;5.426;2023-09-18T10:38:46;8.63;;;7.45;;
49730;SDS011;35622;52.008;5.426;2023-09-18T10:41:15;9.82;;;7.97;;
49730;SDS011;35622;52.008;5.426;2023-09-18T10:43:43;10.05;;;8.80;;
49730;SDS011;35622;52.008;5.426;2023-09-18T10:46:10;10.00;;;8.07;;
49730;SDS011;35622;52.008;5.426;2023-09-18T10:48:38;9.55;;;8.60;;
49730;SDS011;35622;52.008;5.426;2023-09-18T10:51:06;11.65;;;9.68;;
49730;SDS011;35622;52.008;5.426;2023-09-18T10:53:32;10.32;;;9.20;;
49730;SDS011;35622;52.008;5.426;2023-09-18T10:55:58;11.13;;;9.25;;
49730;SDS011;35622;52.008;5.426;2023-09-18T10:58:24;10.73;;;8.70;;
49730;SDS011;35622;52.008;5.426;2023-09-18T11:00:53;9.93;;;8.57;;
49730;SDS011;35622;52.008;5.426;2023-09-18T11:03:21;11.43;;;9.02;;
49730;SDS011;35622;52.008;5.426;2023-09-18T11:06:02;10.27;;;8.30;;
49730;SDS011;35622;52.008;5.426;2023-09-18T11:08:33;10.35;;;9.35;;
49730;SDS011;35622;52.008;5.426;2023-09-18T11:11:01;10.40;;;9.38;;
49730;SDS011;35622;52.008;5.426;2023-09-18T11:21:26;11.20;;;8.90;;
49730;SDS011;35622;52.008;5.426;2023-09-18T11:26:24;10.02;;;8.32;;
49730;SDS011;35622;52.008;5.426;2023-09-18T11:28:55;11.55;;;9.77;;
49730;SDS011;35622;52.008;5.426;2023-09-18T11:31:21;13.18;;;9.38;;
49730;SDS011;35622;52.008;5.426;2023-09-18T11:34:15;9.55;;;8.55;;
49730;SDS011;35622;52.008;5.426;2023-09-18T11:36:45;11.45;;;8.00;;
49730;SDS011;35622;52.008;5.426;2023-09-18T11:39:11;9.63;;;8.10;;
49730;SDS011;35622;52.008;5.426;2023-09-18T11:41:38;10.20;;;6.88;;
49730;SDS011;35622;52.008;5.426;2023-09-18T11:46:35;8.30;;;6.43;;
49730;SDS011;35622;52.008;5.426;2023-09-18T11:49:05;7.28;;;5.93;;
49730;SDS011;35622;52.008;5.426;2023-09-18T11:51:35;6.18;;;4.40;;
49730;SDS011;35622;52.008;5.426;2023-09-18T11:54:01;6.43;;;4.32;;
49730;SDS011;35622;52.008;5.426;2023-09-18T11:56:28;6.43;;;4.25;;
49730;SDS011;35622;52.008;5.426;2023-09-18T11:58:54;6.25;;;4.38;;
49730;SDS011;35622;52.008;5.426;2023-09-18T12:01:20;6.78;;;3.95;;
49730;SDS011;35622;52.008;5.426;2023-09-18T12:03:54;5.25;;;4.30;;
49730;SDS011;35622;52.008;5.426;2023-09-18T12:06:20;5.88;;;4.10;;
49730;SDS011;35622;52.008;5.426;2023-09-18T12:08:46;8.23;;;4.60;;
49730;SDS011;35622;52.008;5.426;2023-09-18T12:11:13;5.45;;;4.03;;
49730;SDS011;35622;52.008;5.426;2023-09-18T12:13:42;6.78;;;4.07;;
49730;SDS011;35622;52.008;5.426;2023-09-18T12:16:08;5.95;;;4.25;;
49730;SDS011;35622;52.008;5.426;2023-09-18T12:18:34;7.00;;;4.75;;
49730;SDS011;35622;52.008;5.426;2023-09-18T12:21:05;6.53;;;4.68;;
49730;SDS011;35622;52.008;5.426;2023-09-18T12:23:38;7.35;;;4.50;;
49730;SDS011;35622;52.008;5.426;2023-09-18T12:26:04;6.32;;;4.63;;
49730;SDS011;35622;52.008;5.426;2023-09-18T12:28:35;7.18;;;4.65;;
49730;SDS011;35622;52.008;5.426;2023-09-18T12:31:01;6.05;;;4.15;;
49730;SDS011;35622;52.008;5.426;2023-09-18T12:33:33;5.28;;;4.70;;
49730;SDS011;35622;52.008;5.426;2023-09-18T12:36:03;6.47;;;5.65;;
49730;SDS011;35622;52.008;5.426;2023-09-18T12:38:30;6.50;;;5.70;;
49730;SDS011;35622;52.008;5.426;2023-09-18T12:40:56;8.32;;;5.80;;
49730;SDS011;35622;52.008;5.426;2023-09-18T12:43:25;6.80;;;5.18;;
49730;SDS011;35622;52.008;5.426;2023-09-18T12:45:54;7.18;;;4.85;;
49730;SDS011;35622;52.008;5.426;2023-09-18T12:48:21;6.40;;;4.00;;
49730;SDS011;35622;52.008;5.426;2023-09-18T12:50:51;8.82;;;4.30;;
49730;SDS011;35622;52.008;5.426;2023-09-18T12:53:21;6.63;;;4.70;;
49730;SDS011;35622;52.008;5.426;2023-09-18T12:55:47;6.20;;;4.18;;
49730;SDS011;35622;52.008;5.426;2023-09-18T12:58:18;6.30;;;4.72;;
49730;SDS011;35622;52.008;5.426;2023-09-18T13:00:47;4.97;;;4.35;;
49730;SDS011;35622;52.008;5.426;2023-09-18T13:03:16;6.28;;;4.28;;
49730;SDS011;35622;52.008;5.426;2023-09-18T13:05:43;5.78;;;4.10;;
49730;SDS011;35622;52.008;5.426;2023-09-18T13:08:09;5.78;;;4.30;;
49730;SDS011;35622;52.008;5.426;2023-09-18T13:10:44;5.25;;;3.90;;
49730;SDS011;35622;52.008;5.426;2023-09-18T13:13:17;5.55;;;3.20;;
49730;SDS011;35622;52.008;5.426;2023-09-18T13:15:44;4.88;;;3.40;;
49730;SDS011;35622;52.008;5.426;2023-09-18T13:18:12;6.75;;;3.40;;
49730;SDS011;35622;52.008;5.426;2023-09-18T13:20:38;6.20;;;4.00;;
49730;SDS011;35622;52.008;5.426;2023-09-18T13:23:05;4.72;;;3.30;;
49730;SDS011;35622;52.008;5.426;2023-09-18T13:25:32;3.55;;;2.88;;
49730;SDS011;35622;52.008;5.426;2023-09-18T13:27:59;4.72;;;2.97;;
49730;SDS011;35622;52.008;5.426;2023-09-18T13:30:25;5.28;;;2.60;;
49730;SDS011;35622;52.008;5.426;2023-09-18T13:33:00;5.45;;;3.22;;
49730;SDS011;35622;52.008;5.426;2023-09-18T13:35:27;4.68;;;2.95;;
49730;SDS011;35622;52.008;5.426;2023-09-18T13:37:53;6.65;;;2.75;;
49730;SDS011;35622;52.008;5.426;2023-09-18T13:40:18;5.40;;;2.78;;
49730;SDS011;35622;52.008;5.426;2023-09-18T13:42:44;6.53;;;2.53;;
49730;SDS011;35622;52.008;5.426;2023-09-18T13:45:09;3.63;;;2.70;;
49730;SDS011;35622;52.008;5.426;2023-09-18T13:47:35;6.07;;;2.60;;
49730;SDS011;35622;52.008;5.426;2023-09-18T13:50:02;3.15;;;2.13;;
49730;SDS011;35622;52.008;5.426;2023-09-18T13:52:29;4.88;;;2.25;;
49730;SDS011;35622;52.008;5.426;2023-09-18T13:54:56;3.83;;;2.22;;
49730;SDS011;35622;52.008;5.426;2023-09-18T13:57:22;3.92;;;2.58;;
49730;SDS011;35622;52.008;5.426;2023-09-18T13:59:49;4.55;;;2.60;;
49730;SDS011;35622;52.008;5.426;2023-09-18T14:02:15;4.65;;;2.22;;
49730;SDS011;35622;52.008;5.426;2023-09-18T14:04:41;5.03;;;2.45;;
49730;SDS011;35622;52.008;5.426;2023-09-18T14:07:07;4.35;;;2.03;;
49730;SDS011;35622;52.008;5.426;2023-09-18T14:09:34;6.03;;;2.30;;
49730;SDS011;35622;52.008;5.426;2023-09-18T14:12:03;3.88;;;2.30;;
49730;SDS011;35622;52.008;5.426;2023-09-18T14:14:32;4.72;;;2.45;;
49730;SDS011;35622;52.008;5.426;2023-09-18T14:16:58;3.30;;;2.33;;
49730;SDS011;35622;52.008;5.426;2023-09-18T14:19:23;2.53;;;1.85;;
49730;SDS011;35622;52.008;5.426;2023-09-18T14:21:49;3.60;;;2.17;;
49730;SDS011;35622;52.008;5.426;2023-09-18T14:24:15;5.53;;;2.17;;
49730;SDS011;35622;52.008;5.426;2023-09-18T14:26:47;2.80;;;1.98;;
49730;SDS011;35622;52.008;5.426;2023-09-18T14:29:14;5.40;;;2.55;;
49730;SDS011;35622;52.008;5.426;2023-09-18T14:31:40;4.18;;;2.05;;
49730;SDS011;35622;52.008;5.426;2023-09-18T14:34:05;2.97;;;2.13;;
49730;SDS011;35622;52.008;5.426;2023-09-18T14:36:31;3.05;;;2.30;;
49730;SDS011;35622;52.008;5.426;2023-09-18T14:38:59;3.20;;;2.20;;
49730;SDS011;35622;52.008;5.426;2023-09-18T14:41:25;4.10;;;2.00;;
49730;SDS011;35622;52.008;5.426;2023-09-18T14:43:51;5.97;;;2.38;;
49730;SDS011;35622;52.008;5.426;2023-09-18T14:46:17;4.35;;;2.22;;
49730;SDS011;35622;52.008;5.426;2023-09-18T14:48:43;4.53;;;2.08;;
49730;SDS011;35622;52.008;5.426;2023-09-18T14:51:08;3.35;;;2.20;;
49730;SDS011;35622;52.008;5.426;2023-09-18T14:53:34;4.95;;;2.08;;
49730;SDS011;35622;52.008;5.426;2023-09-18T14:56:00;3.88;;;2.28;;